sensor_id;sensor_type;location;lat;lon;timestamp;P1;durP1;ratioP1;P2;durP2;ratioP2
7375;SDS011;3728;42.266;24.944;2022-12-18T00:01:44;26.97;;;20.20;;
7375;SDS011;3728;42.266;24.944;2022-12-18T00:04:17;22.97;;;19.33;;
7375;SDS011;3728;42.266;24.944;2022-12-18T00:06:49;22.03;;;18.87;;
7375;SDS011;3728;42.266;24.944;2022-12-18T00:09:20;22.30;;;19.13;;
7375;SDS011;3728;42.266;24.944;2022-12-18T00:11:50;24.10;;;19.20;;
7375;SDS011;3728;42.266;24.944;2022-12-18T00:14:17;26.77;;;20.33;;
7375;SDS011;3728;42.266;24.944;2022-12-18T00:16:45;26.90;;;21.23;;
7375;SDS011;3728;42.266;24.944;2022-12-18T00:19:14;24.93;;;21.40;;
7375;SDS011;3728;42.266;24.944;2022-12-18T00:21:42;26.30;;;23.17;;
7375;SDS011;3728;42.266;24.944;2022-12-18T00:24:10;28.43;;;24.70;;
7375;SDS011;3728;42.266;24.944;2022-12-18T00:26:39;30.47;;;24.23;;
7375;SDS011;3728;42.266;24.944;2022-12-18T00:29:08;31.63;;;25.90;;
7375;SDS011;3728;42.266;24.944;2022-12-18T00:31:42;30.70;;;24.20;;
7375;SDS011;3728;42.266;24.944;2022-12-18T00:34:11;26.30;;;21.43;;
7375;SDS011;3728;42.266;24.944;2022-12-18T00:36:40;27.13;;;22.30;;
7375;SDS011;3728;42.266;24.944;2022-12-18T00:39:09;28.00;;;20.13;;
7375;SDS011;3728;42.266;24.944;2022-12-18T00:41:39;28.33;;;21.67;;
7375;SDS011;3728;42.266;24.944;2022-12-18T00:44:25;24.60;;;21.00;;
7375;SDS011;3728;42.266;24.944;2022-12-18T00:46:52;24.57;;;20.60;;
7375;SDS011;3728;42.266;24.944;2022-12-18T00:49:20;24.57;;;19.67;;
7375;SDS011;3728;42.266;24.944;2022-12-18T00:51:48;24.47;;;20.77;;
7375;SDS011;3728;42.266;24.944;2022-12-18T00:54:16;24.17;;;20.50;;
7375;SDS011;3728;42.266;24.944;2022-12-18T00:56:44;23.43;;;18.73;;
7375;SDS011;3728;42.266;24.944;2022-12-18T00:59:16;26.73;;;19.40;;
7375;SDS011;3728;42.266;24.944;2022-12-18T01:01:45;24.57;;;19.23;;
7375;SDS011;3728;42.266;24.944;2022-12-18T01:04:13;23.53;;;18.83;;
7375;SDS011;3728;42.266;24.944;2022-12-18T01:06:44;21.17;;;18.80;;
7375;SDS011;3728;42.266;24.944;2022-12-18T01:09:12;24.87;;;20.67;;
7375;SDS011;3728;42.266;24.944;2022-12-18T01:11:39;27.87;;;20.30;;
7375;SDS011;3728;42.266;24.944;2022-12-18T01:14:07;28.63;;;20.87;;
7375;SDS011;3728;42.266;24.944;2022-12-18T01:16:36;40.70;;;21.67;;
7375;SDS011;3728;42.266;24.944;2022-12-18T01:19:04;56.10;;;23.63;;
7375;SDS011;3728;42.266;24.944;2022-12-18T01:21:32;47.90;;;23.00;;
7375;SDS011;3728;42.266;24.944;2022-12-18T01:24:02;48.50;;;23.23;;
7375;SDS011;3728;42.266;24.944;2022-12-18T01:26:30;88.83;;;25.90;;
7375;SDS011;3728;42.266;24.944;2022-12-18T01:28:58;69.43;;;23.50;;
7375;SDS011;3728;42.266;24.944;2022-12-18T01:31:27;246.10;;;33.03;;
7375;SDS011;3728;42.266;24.944;2022-12-18T01:34:01;99.30;;;25.73;;
7375;SDS011;3728;42.266;24.944;2022-12-18T01:36:30;236.73;;;29.03;;
7375;SDS011;3728;42.266;24.944;2022-12-18T01:39:04;121.20;;;26.50;;
7375;SDS011;3728;42.266;24.944;2022-12-18T01:41:37;152.63;;;32.97;;
7375;SDS011;3728;42.266;24.944;2022-12-18T01:53:16;106.07;;;33.13;;
7375;SDS011;3728;42.266;24.944;2022-12-18T01:55:51;116.13;;;31.67;;
7375;SDS011;3728;42.266;24.944;2022-12-18T02:01:13;87.47;;;27.90;;
7375;SDS011;3728;42.266;24.944;2022-12-18T02:03:41;81.13;;;26.83;;
7375;SDS011;3728;42.266;24.944;2022-12-18T02:06:13;49.77;;;25.50;;
7375;SDS011;3728;42.266;24.944;2022-12-18T02:09:06;57.53;;;28.87;;
7375;SDS011;3728;42.266;24.944;2022-12-18T02:11:48;55.00;;;29.60;;
7375;SDS011;3728;42.266;24.944;2022-12-18T02:14:30;90.07;;;43.07;;
7375;SDS011;3728;42.266;24.944;2022-12-18T02:17:10;66.83;;;34.33;;
7375;SDS011;3728;42.266;24.944;2022-12-18T02:19:59;78.17;;;34.70;;
7375;SDS011;3728;42.266;24.944;2022-12-18T02:28:27;82.57;;;37.67;;
7375;SDS011;3728;42.266;24.944;2022-12-18T02:31:04;76.90;;;37.53;;
7375;SDS011;3728;42.266;24.944;2022-12-18T02:33:38;148.07;;;39.73;;
7375;SDS011;3728;42.266;24.944;2022-12-18T02:36:08;83.80;;;33.13;;
7375;SDS011;3728;42.266;24.944;2022-12-18T02:38:38;85.83;;;35.23;;
7375;SDS011;3728;42.266;24.944;2022-12-18T02:41:11;79.80;;;33.50;;
7375;SDS011;3728;42.266;24.944;2022-12-18T02:43:46;90.57;;;33.07;;
7375;SDS011;3728;42.266;24.944;2022-12-18T02:52:05;65.57;;;32.20;;
7375;SDS011;3728;42.266;24.944;2022-12-18T02:58:15;106.77;;;33.87;;
7375;SDS011;3728;42.266;24.944;2022-12-18T03:01:09;94.00;;;33.07;;
7375;SDS011;3728;42.266;24.944;2022-12-18T03:03:55;124.33;;;43.33;;
7375;SDS011;3728;42.266;24.944;2022-12-18T03:06:39;253.80;;;88.77;;
7375;SDS011;3728;42.266;24.944;2022-12-18T03:09:14;155.87;;;66.30;;
7375;SDS011;3728;42.266;24.944;2022-12-18T03:11:54;125.07;;;51.13;;
7375;SDS011;3728;42.266;24.944;2022-12-18T03:17:27;99.73;;;39.93;;
7375;SDS011;3728;42.266;24.944;2022-12-18T03:20:02;92.00;;;40.10;;
7375;SDS011;3728;42.266;24.944;2022-12-18T03:22:36;240.47;;;41.97;;
7375;SDS011;3728;42.266;24.944;2022-12-18T03:25:06;78.70;;;36.13;;
7375;SDS011;3728;42.266;24.944;2022-12-18T03:27:39;63.53;;;34.50;;
7375;SDS011;3728;42.266;24.944;2022-12-18T03:30:15;94.20;;;36.33;;
7375;SDS011;3728;42.266;24.944;2022-12-18T03:32:46;93.40;;;35.97;;
7375;SDS011;3728;42.266;24.944;2022-12-18T03:35:28;188.97;;;36.93;;
7375;SDS011;3728;42.266;24.944;2022-12-18T03:38:03;135.73;;;36.40;;
7375;SDS011;3728;42.266;24.944;2022-12-18T03:46:38;187.70;;;53.33;;
7375;SDS011;3728;42.266;24.944;2022-12-18T03:52:24;197.87;;;56.50;;
7375;SDS011;3728;42.266;24.944;2022-12-18T03:54:55;139.27;;;46.60;;
7375;SDS011;3728;42.266;24.944;2022-12-18T03:57:26;264.27;;;45.73;;
7375;SDS011;3728;42.266;24.944;2022-12-18T04:00:05;212.20;;;40.37;;
7375;SDS011;3728;42.266;24.944;2022-12-18T04:02:51;252.33;;;40.00;;
7375;SDS011;3728;42.266;24.944;2022-12-18T04:05:28;255.53;;;41.07;;
7375;SDS011;3728;42.266;24.944;2022-12-18T04:07:57;273.43;;;42.53;;
7375;SDS011;3728;42.266;24.944;2022-12-18T04:10:26;190.30;;;40.33;;
7375;SDS011;3728;42.266;24.944;2022-12-18T04:12:57;199.13;;;41.00;;
7375;SDS011;3728;42.266;24.944;2022-12-18T04:15:26;211.90;;;44.23;;
7375;SDS011;3728;42.266;24.944;2022-12-18T04:17:54;244.73;;;44.93;;
7375;SDS011;3728;42.266;24.944;2022-12-18T04:20:24;258.50;;;44.97;;
7375;SDS011;3728;42.266;24.944;2022-12-18T04:22:52;263.33;;;45.60;;
7375;SDS011;3728;42.266;24.944;2022-12-18T04:25:19;193.27;;;46.17;;
7375;SDS011;3728;42.266;24.944;2022-12-18T04:28:03;155.03;;;42.43;;
7375;SDS011;3728;42.266;24.944;2022-12-18T04:30:32;255.67;;;45.70;;
7375;SDS011;3728;42.266;24.944;2022-12-18T04:33:00;234.70;;;45.03;;
7375;SDS011;3728;42.266;24.944;2022-12-18T04:35:29;283.23;;;43.90;;
7375;SDS011;3728;42.266;24.944;2022-12-18T04:37:57;151.07;;;39.30;;
7375;SDS011;3728;42.266;24.944;2022-12-18T04:40:26;241.77;;;44.67;;
7375;SDS011;3728;42.266;24.944;2022-12-18T04:42:54;332.30;;;48.10;;
7375;SDS011;3728;42.266;24.944;2022-12-18T04:45:21;199.47;;;40.90;;
7375;SDS011;3728;42.266;24.944;2022-12-18T04:47:49;171.90;;;40.13;;
7375;SDS011;3728;42.266;24.944;2022-12-18T04:50:16;205.33;;;43.17;;
7375;SDS011;3728;42.266;24.944;2022-12-18T04:52:44;395.40;;;47.57;;
7375;SDS011;3728;42.266;24.944;2022-12-18T04:55:12;401.67;;;53.30;;
7375;SDS011;3728;42.266;24.944;2022-12-18T04:57:39;313.87;;;49.57;;
7375;SDS011;3728;42.266;24.944;2022-12-18T05:00:07;246.53;;;46.27;;
7375;SDS011;3728;42.266;24.944;2022-12-18T05:02:36;366.10;;;47.47;;
7375;SDS011;3728;42.266;24.944;2022-12-18T05:05:04;395.30;;;51.57;;
7375;SDS011;3728;42.266;24.944;2022-12-18T05:07:32;381.90;;;49.40;;
7375;SDS011;3728;42.266;24.944;2022-12-18T05:10:00;190.73;;;41.43;;
7375;SDS011;3728;42.266;24.944;2022-12-18T05:12:27;351.03;;;48.17;;
7375;SDS011;3728;42.266;24.944;2022-12-18T05:14:55;354.40;;;48.13;;
7375;SDS011;3728;42.266;24.944;2022-12-18T05:17:22;213.40;;;40.53;;
7375;SDS011;3728;42.266;24.944;2022-12-18T05:19:50;196.23;;;37.00;;
7375;SDS011;3728;42.266;24.944;2022-12-18T05:22:17;142.83;;;35.17;;
7375;SDS011;3728;42.266;24.944;2022-12-18T05:24:45;233.97;;;38.93;;
7375;SDS011;3728;42.266;24.944;2022-12-18T05:27:13;260.40;;;38.33;;
7375;SDS011;3728;42.266;24.944;2022-12-18T05:29:40;161.13;;;35.47;;
7375;SDS011;3728;42.266;24.944;2022-12-18T05:32:08;177.27;;;36.80;;
7375;SDS011;3728;42.266;24.944;2022-12-18T05:34:35;158.90;;;33.70;;
7375;SDS011;3728;42.266;24.944;2022-12-18T05:37:02;126.00;;;33.33;;
7375;SDS011;3728;42.266;24.944;2022-12-18T05:39:30;135.77;;;32.07;;
7375;SDS011;3728;42.266;24.944;2022-12-18T05:41:57;124.03;;;31.60;;
7375;SDS011;3728;42.266;24.944;2022-12-18T05:44:25;54.53;;;27.13;;
7375;SDS011;3728;42.266;24.944;2022-12-18T05:46:52;107.27;;;30.47;;
7375;SDS011;3728;42.266;24.944;2022-12-18T05:49:20;98.23;;;29.83;;
7375;SDS011;3728;42.266;24.944;2022-12-18T05:51:47;58.80;;;33.50;;
7375;SDS011;3728;42.266;24.944;2022-12-18T05:54:15;70.57;;;42.78;;
7375;SDS011;3728;42.266;24.944;2022-12-18T05:56:43;66.20;;;43.13;;
7375;SDS011;3728;42.266;24.944;2022-12-18T05:59:14;73.63;;;41.53;;
7375;SDS011;3728;42.266;24.944;2022-12-18T06:01:41;56.27;;;40.00;;
7375;SDS011;3728;42.266;24.944;2022-12-18T06:04:09;59.07;;;47.23;;
7375;SDS011;3728;42.266;24.944;2022-12-18T06:06:37;61.37;;;47.63;;
7375;SDS011;3728;42.266;24.944;2022-12-18T06:09:06;53.17;;;45.37;;
7375;SDS011;3728;42.266;24.944;2022-12-18T06:11:36;50.40;;;45.00;;
7375;SDS011;3728;42.266;24.944;2022-12-18T06:14:05;59.57;;;51.07;;
7375;SDS011;3728;42.266;24.944;2022-12-18T06:16:33;375.20;;;269.33;;
7375;SDS011;3728;42.266;24.944;2022-12-18T06:19:01;46.47;;;41.47;;
7375;SDS011;3728;42.266;24.944;2022-12-18T06:21:34;295.27;;;213.50;;
7375;SDS011;3728;42.266;24.944;2022-12-18T06:24:01;115.80;;;89.00;;
7375;SDS011;3728;42.266;24.944;2022-12-18T06:26:29;164.07;;;108.43;;
7375;SDS011;3728;42.266;24.944;2022-12-18T06:28:56;103.03;;;62.93;;
7375;SDS011;3728;42.266;24.944;2022-12-18T06:31:24;133.80;;;82.43;;
7375;SDS011;3728;42.266;24.944;2022-12-18T06:33:53;36.33;;;29.97;;
7375;SDS011;3728;42.266;24.944;2022-12-18T06:36:20;23.80;;;21.23;;
7375;SDS011;3728;42.266;24.944;2022-12-18T06:38:48;23.33;;;20.77;;
7375;SDS011;3728;42.266;24.944;2022-12-18T06:41:17;23.87;;;19.80;;
7375;SDS011;3728;42.266;24.944;2022-12-18T06:43:46;22.60;;;20.17;;
7375;SDS011;3728;42.266;24.944;2022-12-18T06:46:14;22.57;;;17.60;;
7375;SDS011;3728;42.266;24.944;2022-12-18T06:48:47;20.83;;;17.90;;
7375;SDS011;3728;42.266;24.944;2022-12-18T06:51:17;24.67;;;21.60;;
7375;SDS011;3728;42.266;24.944;2022-12-18T06:53:52;34.03;;;30.37;;
7375;SDS011;3728;42.266;24.944;2022-12-18T06:56:20;37.33;;;32.10;;
7375;SDS011;3728;42.266;24.944;2022-12-18T06:58:48;32.40;;;25.93;;
7375;SDS011;3728;42.266;24.944;2022-12-18T07:01:15;26.17;;;19.57;;
7375;SDS011;3728;42.266;24.944;2022-12-18T07:03:43;26.30;;;21.50;;
7375;SDS011;3728;42.266;24.944;2022-12-18T07:06:16;26.97;;;22.10;;
7375;SDS011;3728;42.266;24.944;2022-12-18T07:08:46;21.47;;;18.13;;
7375;SDS011;3728;42.266;24.944;2022-12-18T07:11:15;22.67;;;20.03;;
7375;SDS011;3728;42.266;24.944;2022-12-18T07:13:44;23.03;;;18.33;;
7375;SDS011;3728;42.266;24.944;2022-12-18T07:16:19;22.53;;;18.87;;
7375;SDS011;3728;42.266;24.944;2022-12-18T07:18:51;21.47;;;15.87;;
7375;SDS011;3728;42.266;24.944;2022-12-18T07:21:21;21.27;;;18.07;;
7375;SDS011;3728;42.266;24.944;2022-12-18T07:23:49;16.53;;;14.83;;
7375;SDS011;3728;42.266;24.944;2022-12-18T07:26:18;17.63;;;14.97;;
7375;SDS011;3728;42.266;24.944;2022-12-18T07:28:47;17.57;;;13.90;;
7375;SDS011;3728;42.266;24.944;2022-12-18T07:31:17;17.70;;;14.67;;
7375;SDS011;3728;42.266;24.944;2022-12-18T07:33:48;18.33;;;15.83;;
7375;SDS011;3728;42.266;24.944;2022-12-18T07:36:16;21.33;;;16.10;;
7375;SDS011;3728;42.266;24.944;2022-12-18T07:38:47;15.87;;;12.80;;
7375;SDS011;3728;42.266;24.944;2022-12-18T07:41:18;18.47;;;13.60;;
7375;SDS011;3728;42.266;24.944;2022-12-18T07:43:47;13.43;;;11.67;;
7375;SDS011;3728;42.266;24.944;2022-12-18T07:46:15;14.23;;;12.67;;
7375;SDS011;3728;42.266;24.944;2022-12-18T07:48:43;16.50;;;12.47;;
7375;SDS011;3728;42.266;24.944;2022-12-18T07:51:15;16.00;;;13.53;;
7375;SDS011;3728;42.266;24.944;2022-12-18T07:53:45;21.93;;;15.63;;
7375;SDS011;3728;42.266;24.944;2022-12-18T07:56:17;20.43;;;16.13;;
7375;SDS011;3728;42.266;24.944;2022-12-18T07:58:56;24.10;;;17.13;;
7375;SDS011;3728;42.266;24.944;2022-12-18T08:01:24;20.10;;;14.00;;
7375;SDS011;3728;42.266;24.944;2022-12-18T08:03:52;19.17;;;14.23;;
7375;SDS011;3728;42.266;24.944;2022-12-18T08:06:19;18.10;;;13.03;;
7375;SDS011;3728;42.266;24.944;2022-12-18T08:08:53;15.83;;;12.37;;
7375;SDS011;3728;42.266;24.944;2022-12-18T08:11:23;14.73;;;11.30;;
7375;SDS011;3728;42.266;24.944;2022-12-18T08:13:55;26.93;;;20.33;;
7375;SDS011;3728;42.266;24.944;2022-12-18T08:16:24;37.23;;;27.30;;
7375;SDS011;3728;42.266;24.944;2022-12-18T08:18:52;14.63;;;11.47;;
7375;SDS011;3728;42.266;24.944;2022-12-18T08:21:23;14.30;;;11.70;;
7375;SDS011;3728;42.266;24.944;2022-12-18T08:23:59;12.70;;;9.90;;
7375;SDS011;3728;42.266;24.944;2022-12-18T08:26:29;50.07;;;35.20;;
7375;SDS011;3728;42.266;24.944;2022-12-18T08:28:59;19.23;;;14.03;;
7375;SDS011;3728;42.266;24.944;2022-12-18T08:31:28;37.17;;;30.10;;
7375;SDS011;3728;42.266;24.944;2022-12-18T08:34:01;46.37;;;34.03;;
7375;SDS011;3728;42.266;24.944;2022-12-18T08:36:29;109.03;;;64.17;;
7375;SDS011;3728;42.266;24.944;2022-12-18T08:38:57;117.70;;;60.97;;
7375;SDS011;3728;42.266;24.944;2022-12-18T08:41:25;97.40;;;45.00;;
7375;SDS011;3728;42.266;24.944;2022-12-18T08:43:53;79.43;;;38.30;;
7375;SDS011;3728;42.266;24.944;2022-12-18T08:46:40;43.43;;;21.67;;
7375;SDS011;3728;42.266;24.944;2022-12-18T08:49:10;27.47;;;15.70;;
7375;SDS011;3728;42.266;24.944;2022-12-18T08:51:38;15.67;;;10.27;;
7375;SDS011;3728;42.266;24.944;2022-12-18T08:54:06;61.97;;;30.93;;
7375;SDS011;3728;42.266;24.944;2022-12-18T08:56:35;33.10;;;19.50;;
7375;SDS011;3728;42.266;24.944;2022-12-18T08:59:04;49.97;;;27.67;;
7375;SDS011;3728;42.266;24.944;2022-12-18T09:01:55;40.10;;;21.07;;
7375;SDS011;3728;42.266;24.944;2022-12-18T09:04:23;26.17;;;15.87;;
7375;SDS011;3728;42.266;24.944;2022-12-18T09:06:50;23.80;;;15.17;;
7375;SDS011;3728;42.266;24.944;2022-12-18T09:09:22;18.63;;;13.53;;
7375;SDS011;3728;42.266;24.944;2022-12-18T09:11:49;26.43;;;16.13;;
7375;SDS011;3728;42.266;24.944;2022-12-18T09:14:17;15.37;;;11.40;;
7375;SDS011;3728;42.266;24.944;2022-12-18T09:16:44;13.20;;;10.90;;
7375;SDS011;3728;42.266;24.944;2022-12-18T09:19:12;15.53;;;9.47;;
7375;SDS011;3728;42.266;24.944;2022-12-18T09:21:40;14.37;;;10.37;;
7375;SDS011;3728;42.266;24.944;2022-12-18T09:24:13;15.40;;;12.07;;
7375;SDS011;3728;42.266;24.944;2022-12-18T09:26:42;19.90;;;13.67;;
7375;SDS011;3728;42.266;24.944;2022-12-18T09:29:13;35.17;;;20.73;;
7375;SDS011;3728;42.266;24.944;2022-12-18T09:31:43;29.20;;;16.53;;
7375;SDS011;3728;42.266;24.944;2022-12-18T09:34:11;23.50;;;15.03;;
7375;SDS011;3728;42.266;24.944;2022-12-18T09:36:39;24.73;;;16.07;;
7375;SDS011;3728;42.266;24.944;2022-12-18T09:39:07;17.63;;;12.00;;
7375;SDS011;3728;42.266;24.944;2022-12-18T09:41:43;20.03;;;14.10;;
7375;SDS011;3728;42.266;24.944;2022-12-18T09:47:30;17.97;;;13.10;;
7375;SDS011;3728;42.266;24.944;2022-12-18T09:50:05;15.87;;;11.63;;
7375;SDS011;3728;42.266;24.944;2022-12-18T09:52:51;19.60;;;13.87;;
7375;SDS011;3728;42.266;24.944;2022-12-18T10:00:58;24.50;;;17.50;;
7375;SDS011;3728;42.266;24.944;2022-12-18T10:03:26;29.73;;;19.93;;
7375;SDS011;3728;42.266;24.944;2022-12-18T10:05:56;31.30;;;22.27;;
7375;SDS011;3728;42.266;24.944;2022-12-18T10:08:34;27.37;;;21.77;;
7375;SDS011;3728;42.266;24.944;2022-12-18T10:11:27;28.43;;;20.40;;
7375;SDS011;3728;42.266;24.944;2022-12-18T10:16:59;24.10;;;17.60;;
7375;SDS011;3728;42.266;24.944;2022-12-18T10:20:18;17.10;;;11.60;;
7375;SDS011;3728;42.266;24.944;2022-12-18T10:28:26;28.63;;;19.20;;
7375;SDS011;3728;42.266;24.944;2022-12-18T10:30:58;32.97;;;18.90;;
7375;SDS011;3728;42.266;24.944;2022-12-18T10:33:30;29.20;;;21.17;;
7375;SDS011;3728;42.266;24.944;2022-12-18T10:36:00;39.17;;;22.70;;
7375;SDS011;3728;42.266;24.944;2022-12-18T10:38:30;37.37;;;22.97;;
7375;SDS011;3728;42.266;24.944;2022-12-18T10:43:30;47.83;;;24.63;;
7375;SDS011;3728;42.266;24.944;2022-12-18T10:48:36;83.60;;;64.80;;
7375;SDS011;3728;42.266;24.944;2022-12-18T10:51:07;47.17;;;30.10;;
7375;SDS011;3728;42.266;24.944;2022-12-18T10:53:39;40.33;;;26.23;;
7375;SDS011;3728;42.266;24.944;2022-12-18T10:56:10;36.50;;;24.07;;
7375;SDS011;3728;42.266;24.944;2022-12-18T10:58:40;33.87;;;22.33;;
7375;SDS011;3728;42.266;24.944;2022-12-18T11:01:12;29.80;;;21.50;;
7375;SDS011;3728;42.266;24.944;2022-12-18T11:03:47;67.47;;;50.60;;
7375;SDS011;3728;42.266;24.944;2022-12-18T11:06:29;52.07;;;37.43;;
7375;SDS011;3728;42.266;24.944;2022-12-18T11:09:00;62.27;;;44.17;;
7375;SDS011;3728;42.266;24.944;2022-12-18T11:11:51;21.53;;;14.23;;
7375;SDS011;3728;42.266;24.944;2022-12-18T11:14:25;24.00;;;16.07;;
7375;SDS011;3728;42.266;24.944;2022-12-18T11:17:19;29.57;;;19.70;;
7375;SDS011;3728;42.266;24.944;2022-12-18T11:20:02;21.47;;;16.83;;
7375;SDS011;3728;42.266;24.944;2022-12-18T11:22:34;18.13;;;14.07;;
7375;SDS011;3728;42.266;24.944;2022-12-18T11:28:02;13.77;;;10.17;;
7375;SDS011;3728;42.266;24.944;2022-12-18T11:33:57;13.30;;;11.33;;
7375;SDS011;3728;42.266;24.944;2022-12-18T11:36:55;13.10;;;9.90;;
7375;SDS011;3728;42.266;24.944;2022-12-18T11:39:31;10.63;;;8.53;;
7375;SDS011;3728;42.266;24.944;2022-12-18T11:48:02;11.27;;;8.63;;
7375;SDS011;3728;42.266;24.944;2022-12-18T11:51:17;11.33;;;8.03;;
7375;SDS011;3728;42.266;24.944;2022-12-18T11:54:09;9.77;;;8.03;;
7375;SDS011;3728;42.266;24.944;2022-12-18T12:02:52;12.00;;;7.70;;
7375;SDS011;3728;42.266;24.944;2022-12-18T12:09:06;9.23;;;7.47;;
7375;SDS011;3728;42.266;24.944;2022-12-18T12:27:04;9.47;;;6.60;;
7375;SDS011;3728;42.266;24.944;2022-12-18T12:30:00;8.30;;;6.77;;
7375;SDS011;3728;42.266;24.944;2022-12-18T12:39:21;7.70;;;6.57;;
7375;SDS011;3728;42.266;24.944;2022-12-18T12:41:58;11.03;;;6.53;;
7375;SDS011;3728;42.266;24.944;2022-12-18T12:44:48;8.50;;;6.53;;
7375;SDS011;3728;42.266;24.944;2022-12-18T12:47:42;8.80;;;5.63;;
7375;SDS011;3728;42.266;24.944;2022-12-18T12:50:14;8.30;;;6.37;;
7375;SDS011;3728;42.266;24.944;2022-12-18T12:52:52;7.47;;;5.17;;
7375;SDS011;3728;42.266;24.944;2022-12-18T12:55:24;5.63;;;4.80;;
7375;SDS011;3728;42.266;24.944;2022-12-18T12:57:57;9.03;;;5.83;;
7375;SDS011;3728;42.266;24.944;2022-12-18T13:01:09;6.63;;;5.43;;
7375;SDS011;3728;42.266;24.944;2022-12-18T13:04:12;9.73;;;5.77;;
7375;SDS011;3728;42.266;24.944;2022-12-18T13:07:23;6.90;;;5.37;;
7375;SDS011;3728;42.266;24.944;2022-12-18T13:12:58;8.37;;;5.73;;
7375;SDS011;3728;42.266;24.944;2022-12-18T13:16:07;7.60;;;6.77;;
7375;SDS011;3728;42.266;24.944;2022-12-18T13:18:37;8.43;;;6.47;;
7375;SDS011;3728;42.266;24.944;2022-12-18T13:21:23;7.93;;;6.60;;
7375;SDS011;3728;42.266;24.944;2022-12-18T13:23:56;8.43;;;6.53;;
7375;SDS011;3728;42.266;24.944;2022-12-18T13:26:42;7.90;;;6.90;;
7375;SDS011;3728;42.266;24.944;2022-12-18T13:29:09;9.30;;;7.33;;
7375;SDS011;3728;42.266;24.944;2022-12-18T13:34:29;8.37;;;6.97;;
7375;SDS011;3728;42.266;24.944;2022-12-18T13:40:01;8.07;;;6.87;;
7375;SDS011;3728;42.266;24.944;2022-12-18T13:42:48;8.30;;;6.93;;
7375;SDS011;3728;42.266;24.944;2022-12-18T13:45:37;10.10;;;7.87;;
7375;SDS011;3728;42.266;24.944;2022-12-18T13:48:17;9.60;;;7.43;;
7375;SDS011;3728;42.266;24.944;2022-12-18T13:50:59;8.83;;;7.20;;
7375;SDS011;3728;42.266;24.944;2022-12-18T13:56:30;8.70;;;6.93;;
7375;SDS011;3728;42.266;24.944;2022-12-18T13:59:21;8.67;;;6.53;;
7375;SDS011;3728;42.266;24.944;2022-12-18T14:02:15;7.93;;;6.30;;
7375;SDS011;3728;42.266;24.944;2022-12-18T14:04:49;10.17;;;7.83;;
7375;SDS011;3728;42.266;24.944;2022-12-18T14:09:50;10.07;;;7.07;;
7375;SDS011;3728;42.266;24.944;2022-12-18T14:13:05;9.57;;;6.73;;
7375;SDS011;3728;42.266;24.944;2022-12-18T14:15:44;6.67;;;5.57;;
7375;SDS011;3728;42.266;24.944;2022-12-18T14:21:18;6.83;;;6.10;;
7375;SDS011;3728;42.266;24.944;2022-12-18T14:26:47;9.17;;;5.40;;
7375;SDS011;3728;42.266;24.944;2022-12-18T14:29:19;7.43;;;5.70;;
7375;SDS011;3728;42.266;24.944;2022-12-18T14:32:08;8.23;;;5.70;;
7375;SDS011;3728;42.266;24.944;2022-12-18T14:34:44;19.73;;;12.03;;
7375;SDS011;3728;42.266;24.944;2022-12-18T14:37:21;10.37;;;7.73;;
7375;SDS011;3728;42.266;24.944;2022-12-18T14:39:57;8.07;;;6.87;;
7375;SDS011;3728;42.266;24.944;2022-12-18T14:42:36;8.80;;;7.00;;
7375;SDS011;3728;42.266;24.944;2022-12-18T14:48:35;10.83;;;7.33;;
7375;SDS011;3728;42.266;24.944;2022-12-18T14:51:19;10.53;;;6.70;;
7375;SDS011;3728;42.266;24.944;2022-12-18T14:56:42;11.07;;;8.13;;
7375;SDS011;3728;42.266;24.944;2022-12-18T14:59:23;8.70;;;7.40;;
7375;SDS011;3728;42.266;24.944;2022-12-18T15:04:42;11.17;;;7.43;;
7375;SDS011;3728;42.266;24.944;2022-12-18T15:07:16;8.77;;;6.53;;
7375;SDS011;3728;42.266;24.944;2022-12-18T15:13:06;7.60;;;5.90;;
7375;SDS011;3728;42.266;24.944;2022-12-18T15:15:44;7.27;;;6.07;;
7375;SDS011;3728;42.266;24.944;2022-12-18T15:18:16;7.90;;;6.70;;
7375;SDS011;3728;42.266;24.944;2022-12-18T15:20:52;8.47;;;6.53;;
7375;SDS011;3728;42.266;24.944;2022-12-18T15:23:28;8.67;;;6.53;;
7375;SDS011;3728;42.266;24.944;2022-12-18T15:26:05;9.40;;;7.07;;
7375;SDS011;3728;42.266;24.944;2022-12-18T15:28:55;9.60;;;7.53;;
7375;SDS011;3728;42.266;24.944;2022-12-18T15:31:30;8.77;;;6.50;;
7375;SDS011;3728;42.266;24.944;2022-12-18T15:36:47;14.23;;;7.90;;
7375;SDS011;3728;42.266;24.944;2022-12-18T15:39:17;10.40;;;7.60;;
7375;SDS011;3728;42.266;24.944;2022-12-18T15:41:47;12.23;;;7.57;;
7375;SDS011;3728;42.266;24.944;2022-12-18T15:44:37;9.43;;;7.17;;
7375;SDS011;3728;42.266;24.944;2022-12-18T15:47:09;10.37;;;8.17;;
7375;SDS011;3728;42.266;24.944;2022-12-18T15:49:39;11.43;;;7.77;;
7375;SDS011;3728;42.266;24.944;2022-12-18T15:52:08;10.70;;;7.90;;
7375;SDS011;3728;42.266;24.944;2022-12-18T15:54:41;9.83;;;7.70;;
7375;SDS011;3728;42.266;24.944;2022-12-18T15:57:27;9.37;;;7.40;;
7375;SDS011;3728;42.266;24.944;2022-12-18T15:59:56;9.50;;;7.60;;
7375;SDS011;3728;42.266;24.944;2022-12-18T16:02:26;7.97;;;6.43;;
7375;SDS011;3728;42.266;24.944;2022-12-18T16:04:55;7.63;;;6.80;;
7375;SDS011;3728;42.266;24.944;2022-12-18T16:07:24;8.77;;;6.80;;
7375;SDS011;3728;42.266;24.944;2022-12-18T16:09:56;8.47;;;6.20;;
7375;SDS011;3728;42.266;24.944;2022-12-18T16:12:28;8.33;;;6.17;;
7375;SDS011;3728;42.266;24.944;2022-12-18T16:14:57;8.10;;;6.33;;
7375;SDS011;3728;42.266;24.944;2022-12-18T16:17:25;8.27;;;6.30;;
7375;SDS011;3728;42.266;24.944;2022-12-18T16:19:53;8.73;;;6.83;;
7375;SDS011;3728;42.266;24.944;2022-12-18T16:22:44;8.20;;;6.30;;
7375;SDS011;3728;42.266;24.944;2022-12-18T16:25:24;9.30;;;6.73;;
7375;SDS011;3728;42.266;24.944;2022-12-18T16:27:55;7.83;;;6.90;;
7375;SDS011;3728;42.266;24.944;2022-12-18T16:30:25;8.57;;;7.40;;
7375;SDS011;3728;42.266;24.944;2022-12-18T16:33:07;8.43;;;6.40;;
7375;SDS011;3728;42.266;24.944;2022-12-18T16:35:39;9.03;;;6.87;;
7375;SDS011;3728;42.266;24.944;2022-12-18T16:38:09;9.60;;;6.97;;
7375;SDS011;3728;42.266;24.944;2022-12-18T16:40:36;9.90;;;7.20;;
7375;SDS011;3728;42.266;24.944;2022-12-18T16:43:28;10.60;;;7.67;;
7375;SDS011;3728;42.266;24.944;2022-12-18T16:45:59;9.20;;;7.67;;
7375;SDS011;3728;42.266;24.944;2022-12-18T16:48:28;9.17;;;7.87;;
7375;SDS011;3728;42.266;24.944;2022-12-18T16:51:01;8.13;;;6.60;;
7375;SDS011;3728;42.266;24.944;2022-12-18T16:53:32;9.80;;;7.23;;
7375;SDS011;3728;42.266;24.944;2022-12-18T16:56:04;9.67;;;8.07;;
7375;SDS011;3728;42.266;24.944;2022-12-18T16:58:34;10.10;;;7.27;;
7375;SDS011;3728;42.266;24.944;2022-12-18T17:01:07;9.37;;;7.43;;
7375;SDS011;3728;42.266;24.944;2022-12-18T17:03:41;8.20;;;7.13;;
7375;SDS011;3728;42.266;24.944;2022-12-18T17:06:14;8.83;;;7.10;;
7375;SDS011;3728;42.266;24.944;2022-12-18T17:08:44;7.63;;;6.33;;
7375;SDS011;3728;42.266;24.944;2022-12-18T17:11:14;8.03;;;6.37;;
7375;SDS011;3728;42.266;24.944;2022-12-18T17:13:42;9.03;;;6.60;;
7375;SDS011;3728;42.266;24.944;2022-12-18T17:16:10;8.47;;;6.87;;
7375;SDS011;3728;42.266;24.944;2022-12-18T17:18:39;9.30;;;6.30;;
7375;SDS011;3728;42.266;24.944;2022-12-18T17:21:08;6.87;;;6.17;;
7375;SDS011;3728;42.266;24.944;2022-12-18T17:23:38;7.27;;;6.57;;
7375;SDS011;3728;42.266;24.944;2022-12-18T17:26:07;8.83;;;6.13;;
7375;SDS011;3728;42.266;24.944;2022-12-18T17:28:37;7.30;;;6.07;;
7375;SDS011;3728;42.266;24.944;2022-12-18T17:31:11;9.03;;;6.70;;
7375;SDS011;3728;42.266;24.944;2022-12-18T17:33:55;8.27;;;5.80;;
7375;SDS011;3728;42.266;24.944;2022-12-18T17:36:26;7.20;;;5.97;;